sensor_id;sensor_type;location;lat;lon;timestamp;pressure;altitude;pressure_sealevel;temperature;humidity
63946;BME280;50122;56.330;43.838;2022-09-13T00:01:08;101293.78;;;4.84;85.11
63946;BME280;50122;56.330;43.838;2022-09-13T00:03:35;101278.97;;;4.77;85.34
63946;BME280;50122;56.330;43.838;2022-09-13T00:06:10;101290.31;;;4.76;85.24
63946;BME280;50122;56.330;43.838;2022-09-13T00:08:37;101291.19;;;4.73;85.21
63946;BME280;50122;56.330;43.838;2022-09-13T00:11:05;101292.06;;;4.70;85.18
63946;BME280;50122;56.330;43.838;2022-09-13T00:13:32;101297.31;;;4.67;85.28
63946;BME280;50122;56.330;43.838;2022-09-13T00:16:00;101291.22;;;4.67;85.41
63946;BME280;50122;56.330;43.838;2022-09-13T00:18:29;101279.88;;;4.60;84.99
63946;BME280;50122;56.330;43.838;2022-09-13T00:21:06;101286.00;;;4.56;85.68
63946;BME280;50122;56.330;43.838;2022-09-13T00:23:35;101279.03;;;4.49;84.79
63946;BME280;50122;56.330;43.838;2022-09-13T00:26:12;101293.88;;;4.48;85.33
63946;BME280;50122;56.330;43.838;2022-09-13T00:28:42;101279.94;;;4.40;84.75
63946;BME280;50122;56.330;43.838;2022-09-13T00:31:11;101288.66;;;4.45;84.99
63946;BME280;50122;56.330;43.838;2022-09-13T00:33:38;101285.16;;;4.40;85.18
63946;BME280;50122;56.330;43.838;2022-09-13T00:36:09;101287.78;;;4.42;85.21
63946;BME280;50122;56.330;43.838;2022-09-13T00:38:38;101272.09;;;4.34;85.21
63946;BME280;50122;56.330;43.838;2022-09-13T00:41:08;101281.69;;;4.41;85.17
63946;BME280;50122;56.330;43.838;2022-09-13T00:43:57;101284.31;;;4.38;85.67
63946;BME280;50122;56.330;43.838;2022-09-13T00:51:47;101285.19;;;4.32;85.23
63946;BME280;50122;56.330;43.838;2022-09-13T00:54:20;101293.91;;;4.31;85.67
63946;BME280;50122;56.330;43.838;2022-09-13T00:56:52;101292.19;;;4.32;85.85
63946;BME280;50122;56.330;43.838;2022-09-13T00:59:29;101285.22;;;4.29;85.52
63946;BME280;50122;56.330;43.838;2022-09-13T01:01:56;101293.06;;;4.29;86.08
63946;BME280;50122;56.330;43.838;2022-09-13T01:04:25;101289.56;;;4.24;85.83
63946;BME280;50122;56.330;43.838;2022-09-13T01:06:57;101286.09;;;4.19;85.56
63946;BME280;50122;56.330;43.838;2022-09-13T01:09:27;101294.81;;;4.18;85.84
63946;BME280;50122;56.330;43.838;2022-09-13T01:12:00;101292.19;;;4.16;85.69
63946;BME280;50122;56.330;43.838;2022-09-13T01:14:31;101286.09;;;4.08;85.73
63946;BME280;50122;56.330;43.838;2022-09-13T01:16:58;101300.91;;;4.14;85.68
63946;BME280;50122;56.330;43.838;2022-09-13T01:19:25;101298.31;;;4.09;86.37
63946;BME280;50122;56.330;43.838;2022-09-13T01:35:48;101291.34;;;3.99;86.04
63946;BME280;50122;56.330;43.838;2022-09-13T01:38:41;101290.47;;;3.97;85.91
63946;BME280;50122;56.330;43.838;2022-09-13T01:46:50;101284.38;;;3.89;86.09
63946;BME280;50122;56.330;43.838;2022-09-13T01:52:31;101282.63;;;3.83;86.17
63946;BME280;50122;56.330;43.838;2022-09-13T02:00:43;101269.56;;;3.71;86.03
63946;BME280;50122;56.330;43.838;2022-09-13T02:03:32;101270.41;;;3.71;86.48
63946;BME280;50122;56.330;43.838;2022-09-13T02:06:10;101282.63;;;3.74;86.74
63946;BME280;50122;56.330;43.838;2022-09-13T02:08:44;101273.91;;;3.75;86.64
63946;BME280;50122;56.330;43.838;2022-09-13T02:11:14;101274.78;;;3.72;86.71
63946;BME280;50122;56.330;43.838;2022-09-13T02:13:48;101267.81;;;3.67;86.67
63946;BME280;50122;56.330;43.838;2022-09-13T02:16:20;101269.56;;;3.66;86.50
63946;BME280;50122;56.330;43.838;2022-09-13T02:18:56;101268.69;;;3.65;86.69
63946;BME280;50122;56.330;43.838;2022-09-13T02:21:29;101260.81;;;3.61;86.84
63946;BME280;50122;56.330;43.838;2022-09-13T02:24:03;101259.09;;;3.60;86.32
63946;BME280;50122;56.330;43.838;2022-09-13T02:26:33;101263.44;;;3.56;86.43
63946;BME280;50122;56.330;43.838;2022-09-13T02:29:09;101275.66;;;3.57;86.10
63946;BME280;50122;56.330;43.838;2022-09-13T02:31:53;101265.19;;;3.56;86.67
63946;BME280;50122;56.330;43.838;2022-09-13T02:34:22;101264.34;;;3.57;86.26
63946;BME280;50122;56.330;43.838;2022-09-13T02:36:53;101267.81;;;3.54;86.52
63946;BME280;50122;56.330;43.838;2022-09-13T02:39:23;101269.56;;;3.60;86.82
63946;BME280;50122;56.330;43.838;2022-09-13T02:41:55;101273.03;;;3.62;86.99
63946;BME280;50122;56.330;43.838;2022-09-13T02:55:15;101261.72;;;3.68;86.91
63946;BME280;50122;56.330;43.838;2022-09-13T03:01:00;101265.19;;;3.71;86.65
63946;BME280;50122;56.330;43.838;2022-09-13T03:03:29;101263.47;;;3.72;87.02
63946;BME280;50122;56.330;43.838;2022-09-13T03:05:55;101273.91;;;3.73;87.08
63946;BME280;50122;56.330;43.838;2022-09-13T03:08:22;101255.63;;;3.69;86.59
63946;BME280;50122;56.330;43.838;2022-09-13T03:11:09;101269.53;;;3.75;86.88
63946;BME280;50122;56.330;43.838;2022-09-13T03:30:52;101257.34;;;3.97;87.06
63946;BME280;50122;56.330;43.838;2022-09-13T03:33:33;101252.97;;;4.04;86.87
63946;BME280;50122;56.330;43.838;2022-09-13T03:36:10;101261.69;;;4.12;86.63
63946;BME280;50122;56.330;43.838;2022-09-13T03:41:28;101261.66;;;4.26;87.03
63946;BME280;50122;56.330;43.838;2022-09-13T03:44:05;101267.72;;;4.34;86.96
63946;BME280;50122;56.330;43.838;2022-09-13T03:46:40;101256.38;;;4.39;87.13
63946;BME280;50122;56.330;43.838;2022-09-13T03:49:11;101254.63;;;4.48;87.34
63946;BME280;50122;56.330;43.838;2022-09-13T03:51:39;101254.59;;;4.56;87.37
63946;BME280;50122;56.330;43.838;2022-09-13T03:54:14;101255.41;;;4.69;87.17
63946;BME280;50122;56.330;43.838;2022-09-13T03:56:42;101259.75;;;4.76;87.30
63946;BME280;50122;56.330;43.838;2022-09-13T03:59:08;101249.22;;;4.82;87.37
63946;BME280;50122;56.330;43.838;2022-09-13T04:01:35;101246.59;;;4.90;87.45
63946;BME280;50122;56.330;43.838;2022-09-13T04:04:02;101251.75;;;5.02;87.42
63946;BME280;50122;56.330;43.838;2022-09-13T04:06:28;101255.25;;;5.06;87.62
63946;BME280;50122;56.330;43.838;2022-09-13T04:08:55;101259.53;;;5.18;87.67
63946;BME280;50122;56.330;43.838;2022-09-13T04:11:22;101255.16;;;5.21;87.69
63946;BME280;50122;56.330;43.838;2022-09-13T04:13:49;101257.72;;;5.31;87.96
63946;BME280;50122;56.330;43.838;2022-09-13T04:16:16;101252.44;;;5.37;87.62
63946;BME280;50122;56.330;43.838;2022-09-13T04:18:43;101260.22;;;5.49;87.92
63946;BME280;50122;56.330;43.838;2022-09-13T04:21:09;101255.78;;;5.56;88.02
63946;BME280;50122;56.330;43.838;2022-09-13T04:23:36;101261.84;;;5.63;88.15
63946;BME280;50122;56.330;43.838;2022-09-13T04:26:04;101265.28;;;5.72;88.10
63946;BME280;50122;56.330;43.838;2022-09-13T04:28:31;101262.63;;;5.77;88.47
63946;BME280;50122;56.330;43.838;2022-09-13T04:30:58;101265.16;;;5.89;88.66
63946;BME280;50122;56.330;43.838;2022-09-13T04:33:25;101274.72;;;5.98;88.37
63946;BME280;50122;56.330;43.838;2022-09-13T04:35:58;101266.75;;;6.07;88.45
63946;BME280;50122;56.330;43.838;2022-09-13T04:38:26;101270.16;;;6.19;88.52
63946;BME280;50122;56.330;43.838;2022-09-13T04:40:54;101268.28;;;6.30;88.53
63946;BME280;50122;56.330;43.838;2022-09-13T04:43:21;101255.19;;;6.29;88.82
63946;BME280;50122;56.330;43.838;2022-09-13T04:45:48;101267.19;;;6.50;88.57
63946;BME280;50122;56.330;43.838;2022-09-13T04:48:16;101266.19;;;6.63;88.54
63946;BME280;50122;56.330;43.838;2022-09-13T04:50:43;101270.34;;;6.80;88.14
63946;BME280;50122;56.330;43.838;2022-09-13T04:53:10;101256.13;;;6.94;88.28
63946;BME280;50122;56.330;43.838;2022-09-13T04:55:38;101268.19;;;7.11;88.08
63946;BME280;50122;56.330;43.838;2022-09-13T04:58:04;101285.47;;;7.29;88.16
63946;BME280;50122;56.330;43.838;2022-09-13T05:00:31;101291.50;;;7.37;88.19
63946;BME280;50122;56.330;43.838;2022-09-13T05:02:59;101284.28;;;7.52;87.93
63946;BME280;50122;56.330;43.838;2022-09-13T05:05:26;101287.56;;;7.66;87.75
63946;BME280;50122;56.330;43.838;2022-09-13T05:07:54;101278.56;;;7.79;87.00
63946;BME280;50122;56.330;43.838;2022-09-13T05:10:20;101286.25;;;7.93;86.40
63946;BME280;50122;56.330;43.838;2022-09-13T05:12:47;101287.78;;;8.05;86.23
63946;BME280;50122;56.330;43.838;2022-09-13T05:15:14;101288.56;;;8.12;85.04
63946;BME280;50122;56.330;43.838;2022-09-13T05:17:41;101288.38;;;8.21;84.11
63946;BME280;50122;56.330;43.838;2022-09-13T05:20:08;101295.25;;;8.30;83.15
63946;BME280;50122;56.330;43.838;2022-09-13T05:22:34;101293.34;;;8.38;81.62
63946;BME280;50122;56.330;43.838;2022-09-13T05:25:01;101294.06;;;8.49;80.15
63946;BME280;50122;56.330;43.838;2022-09-13T05:27:28;101290.44;;;8.55;79.91
63946;BME280;50122;56.330;43.838;2022-09-13T05:29:55;101290.31;;;8.61;79.51
63946;BME280;50122;56.330;43.838;2022-09-13T05:32:21;101292.84;;;8.66;78.09
63946;BME280;50122;56.330;43.838;2022-09-13T05:34:48;101294.50;;;8.72;77.67
63946;BME280;50122;56.330;43.838;2022-09-13T05:37:14;101288.19;;;8.79;76.89
63946;BME280;50122;56.330;43.838;2022-09-13T05:39:43;101301.25;;;8.85;75.98
63946;BME280;50122;56.330;43.838;2022-09-13T05:42:29;101299.44;;;8.89;75.99
63946;BME280;50122;56.330;43.838;2022-09-13T05:44:57;101302.75;;;8.97;75.14
63946;BME280;50122;56.330;43.838;2022-09-13T05:47:24;101303.50;;;9.03;74.84
63946;BME280;50122;56.330;43.838;2022-09-13T05:49:50;101302.69;;;9.01;74.69
63946;BME280;50122;56.330;43.838;2022-09-13T05:52:35;101306.06;;;9.07;74.61
63946;BME280;50122;56.330;43.838;2022-09-13T05:55:02;101301.47;;;9.16;74.19
63946;BME280;50122;56.330;43.838;2022-09-13T05:57:29;101295.28;;;9.19;73.70
63946;BME280;50122;56.330;43.838;2022-09-13T05:59:56;101306.53;;;9.26;73.11
63946;BME280;50122;56.330;43.838;2022-09-13T06:02:22;101293.31;;;9.29;72.45
63946;BME280;50122;56.330;43.838;2022-09-13T06:04:50;101293.16;;;9.35;71.86
63946;BME280;50122;56.330;43.838;2022-09-13T06:07:17;101294.66;;;9.47;71.30
63946;BME280;50122;56.330;43.838;2022-09-13T06:09:43;101281.31;;;9.53;70.77
63946;BME280;50122;56.330;43.838;2022-09-13T06:12:11;101281.84;;;9.67;70.54
63946;BME280;50122;56.330;43.838;2022-09-13T06:14:37;101275.50;;;9.74;70.07
63946;BME280;50122;56.330;43.838;2022-09-13T06:17:05;101246.59;;;9.70;69.23
63946;BME280;50122;56.330;43.838;2022-09-13T06:19:31;101263.72;;;9.89;69.09
63946;BME280;50122;56.330;43.838;2022-09-13T06:21:58;101251.41;;;9.88;68.95
63946;BME280;50122;56.330;43.838;2022-09-13T06:24:25;101264.22;;;10.04;68.33
63946;BME280;50122;56.330;43.838;2022-09-13T06:26:51;101242.47;;;9.94;68.09
63946;BME280;50122;56.330;43.838;2022-09-13T06:29:19;101244.00;;;10.03;67.82
63946;BME280;50122;56.330;43.838;2022-09-13T06:31:45;101245.63;;;10.08;68.18
63946;BME280;50122;56.330;43.838;2022-09-13T06:34:14;101233.91;;;10.19;67.66
63946;BME280;50122;56.330;43.838;2022-09-13T06:36:43;101237.25;;;10.25;66.90
63946;BME280;50122;56.330;43.838;2022-09-13T06:39:10;101244.94;;;10.35;66.53
63946;BME280;50122;56.330;43.838;2022-09-13T06:41:40;101233.09;;;10.48;66.09
63946;BME280;50122;56.330;43.838;2022-09-13T06:44:08;101240.13;;;10.49;65.77
63946;BME280;50122;56.330;43.838;2022-09-13T06:46:35;101237.59;;;10.46;65.89
63946;BME280;50122;56.330;43.838;2022-09-13T06:49:05;101237.31;;;10.55;65.66
63946;BME280;50122;56.330;43.838;2022-09-13T06:51:33;101241.47;;;10.64;65.43
63946;BME280;50122;56.330;43.838;2022-09-13T06:54:00;101246.66;;;10.67;65.36
63946;BME280;50122;56.330;43.838;2022-09-13T06:56:29;101243.97;;;10.69;64.87
63946;BME280;50122;56.330;43.838;2022-09-13T06:58:59;101246.50;;;10.73;64.97
63946;BME280;50122;56.330;43.838;2022-09-13T07:01:32;101242.88;;;10.77;65.34
63946;BME280;50122;56.330;43.838;2022-09-13T07:04:02;101222.81;;;10.70;64.98
63946;BME280;50122;56.330;43.838;2022-09-13T07:06:31;101226.94;;;10.79;63.98
63946;BME280;50122;56.330;43.838;2022-09-13T07:09:00;101240.38;;;11.01;63.03
63946;BME280;50122;56.330;43.838;2022-09-13T07:11:30;101231.25;;;11.11;62.79
63946;BME280;50122;56.330;43.838;2022-09-13T07:13:58;101237.88;;;11.25;61.71
63946;BME280;50122;56.330;43.838;2022-09-13T07:16:30;101245.66;;;11.31;61.19
63946;BME280;50122;56.330;43.838;2022-09-13T07:19:06;101242.22;;;11.27;61.27
63946;BME280;50122;56.330;43.838;2022-09-13T07:21:34;101241.31;;;11.28;59.90
63946;BME280;50122;56.330;43.838;2022-09-13T07:24:01;101244.63;;;11.35;59.82
63946;BME280;50122;56.330;43.838;2022-09-13T07:26:28;101252.44;;;11.40;59.97
63946;BME280;50122;56.330;43.838;2022-09-13T07:28:58;101240.84;;;11.44;60.29
63946;BME280;50122;56.330;43.838;2022-09-13T07:31:28;101232.78;;;11.47;60.86
63946;BME280;50122;56.330;43.838;2022-09-13T07:33:57;101215.00;;;11.51;60.47
63946;BME280;50122;56.330;43.838;2022-09-13T07:36:24;101210.97;;;11.65;60.18
63946;BME280;50122;56.330;43.838;2022-09-13T07:38:52;101219.38;;;11.78;59.57
63946;BME280;50122;56.330;43.838;2022-09-13T07:41:21;101219.13;;;11.86;58.96
63946;BME280;50122;56.330;43.838;2022-09-13T07:43:52;101214.44;;;11.96;58.84
63946;BME280;50122;56.330;43.838;2022-09-13T07:46:27;101215.97;;;12.02;58.86
63946;BME280;50122;56.330;43.838;2022-09-13T07:48:58;101217.19;;;12.18;58.64
63946;BME280;50122;56.330;43.838;2022-09-13T07:51:27;101218.56;;;12.28;58.05
63946;BME280;50122;56.330;43.838;2022-09-13T07:53:56;101221.75;;;12.38;58.54
63946;BME280;50122;56.330;43.838;2022-09-13T07:56:41;101220.19;;;12.56;58.16
63946;BME280;50122;56.330;43.838;2022-09-13T07:59:13;101199.56;;;12.64;57.90
63946;BME280;50122;56.330;43.838;2022-09-13T08:01:42;101203.59;;;12.75;57.10
63946;BME280;50122;56.330;43.838;2022-09-13T08:04:12;101215.47;;;12.88;56.58
63946;BME280;50122;56.330;43.838;2022-09-13T08:06:40;101188.81;;;12.91;56.47
63946;BME280;50122;56.330;43.838;2022-09-13T08:09:08;101209.19;;;13.13;56.30
63946;BME280;50122;56.330;43.838;2022-09-13T08:11:46;101200.81;;;13.24;56.27
63946;BME280;50122;56.330;43.838;2022-09-13T08:14:15;101191.13;;;13.23;55.03
63946;BME280;50122;56.330;43.838;2022-09-13T08:16:43;101198.38;;;13.41;55.31
63946;BME280;50122;56.330;43.838;2022-09-13T08:19:16;101169.44;;;13.33;55.21
63946;BME280;50122;56.330;43.838;2022-09-13T08:21:43;101204.31;;;13.68;54.69
63946;BME280;50122;56.330;43.838;2022-09-13T08:24:16;101194.09;;;13.80;54.24
63946;BME280;50122;56.330;43.838;2022-09-13T08:26:43;101186.41;;;13.94;54.69
63946;BME280;50122;56.330;43.838;2022-09-13T08:29:11;101203.41;;;14.11;53.64
63946;BME280;50122;56.330;43.838;2022-09-13T08:31:38;101187.22;;;14.15;52.78
63946;BME280;50122;56.330;43.838;2022-09-13T08:34:08;101179.19;;;14.37;52.28
63946;BME280;50122;56.330;43.838;2022-09-13T08:36:35;101186.31;;;14.56;52.20
63946;BME280;50122;56.330;43.838;2022-09-13T08:39:02;101199.13;;;14.67;50.92
63946;BME280;50122;56.330;43.838;2022-09-13T08:44:39;101171.59;;;14.87;50.66
63946;BME280;50122;56.330;43.838;2022-09-13T08:47:39;101185.88;;;15.03;50.76
63946;BME280;50122;56.330;43.838;2022-09-13T08:50:14;101180.69;;;15.19;49.97
63946;BME280;50122;56.330;43.838;2022-09-13T08:53:16;101176.94;;;15.23;49.30
63946;BME280;50122;56.330;43.838;2022-09-13T09:06:27;101146.84;;;16.09;48.53
63946;BME280;50122;56.330;43.838;2022-09-13T09:09:03;101155.69;;;17.69;45.90
63946;BME280;50122;56.330;43.838;2022-09-13T09:11:39;101113.72;;;19.52;41.14
63946;BME280;50122;56.330;43.838;2022-09-13T09:14:29;101125.19;;;20.70;39.16
63946;BME280;50122;56.330;43.838;2022-09-13T09:17:13;101133.22;;;21.43;37.49
63946;BME280;50122;56.330;43.838;2022-09-13T09:19:45;101122.00;;;22.18;35.99
63946;BME280;50122;56.330;43.838;2022-09-13T09:22:19;101115.13;;;23.03;34.56
63946;BME280;50122;56.330;43.838;2022-09-13T09:24:50;101110.50;;;23.59;33.53
63946;BME280;50122;56.330;43.838;2022-09-13T09:27:19;101098.63;;;23.71;32.28
63946;BME280;50122;56.330;43.838;2022-09-13T09:29:49;101114.88;;;21.83;34.65
63946;BME280;50122;56.330;43.838;2022-09-13T09:40:51;101101.16;;;21.28;35.21
63946;BME280;50122;56.330;43.838;2022-09-13T09:43:28;101097.13;;;22.71;33.90
63946;BME280;50122;56.330;43.838;2022-09-13T09:45:59;101075.88;;;24.67;30.26
63946;BME280;50122;56.330;43.838;2022-09-13T09:48:36;101096.00;;;23.60;31.11
63946;BME280;50122;56.330;43.838;2022-09-13T09:51:05;101080.63;;;23.72;31.73
63946;BME280;50122;56.330;43.838;2022-09-13T09:53:39;101072.25;;;23.12;32.55
63946;BME280;50122;56.330;43.838;2022-09-13T09:58:50;101085.19;;;23.81;31.51
63946;BME280;50122;56.330;43.838;2022-09-13T10:01:21;101086.59;;;22.68;33.15
63946;BME280;50122;56.330;43.838;2022-09-13T10:04:14;101083.72;;;22.37;33.89
63946;BME280;50122;56.330;43.838;2022-09-13T10:06:44;101082.63;;;21.37;35.54
63946;BME280;50122;56.330;43.838;2022-09-13T10:11:42;101079.94;;;23.16;33.64
63946;BME280;50122;56.330;43.838;2022-09-13T10:14:40;101081.88;;;22.82;33.77
63946;BME280;50122;56.330;43.838;2022-09-13T10:19:37;101069.31;;;23.15;32.80
63946;BME280;50122;56.330;43.838;2022-09-13T10:22:09;101071.50;;;22.33;35.16
63946;BME280;50122;56.330;43.838;2022-09-13T10:24:37;101058.91;;;24.55;30.49
63946;BME280;50122;56.330;43.838;2022-09-13T10:27:22;101057.66;;;26.78;28.37
63946;BME280;50122;56.330;43.838;2022-09-13T10:29:52;101038.38;;;29.70;23.65
63946;BME280;50122;56.330;43.838;2022-09-13T10:32:21;101040.59;;;30.54;22.94
63946;BME280;50122;56.330;43.838;2022-09-13T10:34:49;101042.97;;;29.86;24.48
63946;BME280;50122;56.330;43.838;2022-09-13T10:37:20;101044.22;;;27.57;25.38
63946;BME280;50122;56.330;43.838;2022-09-13T10:39:57;101035.66;;;24.83;28.98
63946;BME280;50122;56.330;43.838;2022-09-13T10:42:27;101035.59;;;23.09;30.92
63946;BME280;50122;56.330;43.838;2022-09-13T10:45:07;101038.78;;;23.14;32.22
63946;BME280;50122;56.330;43.838;2022-09-13T10:47:47;101024.31;;;26.49;27.14
63946;BME280;50122;56.330;43.838;2022-09-13T10:50:24;101002.53;;;28.59;24.50
63946;BME280;50122;56.330;43.838;2022-09-13T10:52:52;100999.59;;;28.36;24.32
63946;BME280;50122;56.330;43.838;2022-09-13T11:00:34;101010.44;;;29.76;22.44
63946;BME280;50122;56.330;43.838;2022-09-13T11:03:30;101020.78;;;31.07;21.30
63946;BME280;50122;56.330;43.838;2022-09-13T11:30:18;100991.53;;;33.35;18.63
63946;BME280;50122;56.330;43.838;2022-09-13T11:33:22;101004.75;;;32.38;19.86
63946;BME280;50122;56.330;43.838;2022-09-13T11:46:57;101007.31;;;24.07;27.98
63946;BME280;50122;56.330;43.838;2022-09-13T11:50:00;101004.19;;;22.66;30.19
63946;BME280;50122;56.330;43.838;2022-09-13T11:55:33;101017.88;;;21.04;32.84
63946;BME280;50122;56.330;43.838;2022-09-13T11:58:04;101015.19;;;21.04;33.29
63946;BME280;50122;56.330;43.838;2022-09-13T12:00:44;101009.63;;;20.83;33.43
63946;BME280;50122;56.330;43.838;2022-09-13T12:03:33;101010.59;;;21.29;32.87
63946;BME280;50122;56.330;43.838;2022-09-13T12:06:22;101012.75;;;21.71;32.76
63946;BME280;50122;56.330;43.838;2022-09-13T12:11:38;101006.22;;;20.20;34.17
63946;BME280;50122;56.330;43.838;2022-09-13T12:14:13;101006.16;;;19.70;36.10
63946;BME280;50122;56.330;43.838;2022-09-13T12:16:43;101008.09;;;19.29;36.72
63946;BME280;50122;56.330;43.838;2022-09-13T12:22:02;100994.09;;;18.58;38.62
63946;BME280;50122;56.330;43.838;2022-09-13T12:24:43;101011.38;;;18.39;39.47
63946;BME280;50122;56.330;43.838;2022-09-13T12:27:32;100989.72;;;18.15;40.40
63946;BME280;50122;56.330;43.838;2022-09-13T12:30:16;101002.66;;;18.09;40.07
63946;BME280;50122;56.330;43.838;2022-09-13T12:32:45;100995.19;;;18.14;39.83
63946;BME280;50122;56.330;43.838;2022-09-13T12:35:29;100998.34;;;18.48;39.57
63946;BME280;50122;56.330;43.838;2022-09-13T12:46:24;100997.78;;;18.97;38.39
63946;BME280;50122;56.330;43.838;2022-09-13T12:54:48;100984.81;;;18.64;39.34
63946;BME280;50122;56.330;43.838;2022-09-13T13:08:49;100962.06;;;17.87;41.28
63946;BME280;50122;56.330;43.838;2022-09-13T13:11:20;100956.34;;;17.65;42.08
63946;BME280;50122;56.330;43.838;2022-09-13T13:13:56;100948.72;;;17.59;41.60
63946;BME280;50122;56.330;43.838;2022-09-13T13:16:31;100949.41;;;17.62;42.42
63946;BME280;50122;56.330;43.838;2022-09-13T13:19:02;100943.75;;;17.52;41.33
63946;BME280;50122;56.330;43.838;2022-09-13T13:21:31;100936.69;;;17.37;41.71
63946;BME280;50122;56.330;43.838;2022-09-13T13:26:48;100947.34;;;16.94;42.97
63946;BME280;50122;56.330;43.838;2022-09-13T13:42:30;100935.56;;;16.52;45.12
63946;BME280;50122;56.330;43.838;2022-09-13T13:50:13;100902.81;;;16.34;45.51
63946;BME280;50122;56.330;43.838;2022-09-13T13:58:26;100911.00;;;15.98;46.87
63946;BME280;50122;56.330;43.838;2022-09-13T14:00:58;100901.91;;;15.87;46.78
63946;BME280;50122;56.330;43.838;2022-09-13T14:03:54;100906.94;;;15.75;46.69
63946;BME280;50122;56.330;43.838;2022-09-13T14:06:30;100902.81;;;15.70;47.60
63946;BME280;50122;56.330;43.838;2022-09-13T14:11:44;100904.69;;;15.52;48.34
63946;BME280;50122;56.330;43.838;2022-09-13T14:19:52;100890.22;;;15.06;48.66
63946;BME280;50122;56.330;43.838;2022-09-13T14:22:23;100893.22;;;15.00;49.02
63946;BME280;50122;56.330;43.838;2022-09-13T14:25:11;100862.34;;;14.80;49.39
63946;BME280;50122;56.330;43.838;2022-09-13T14:27:40;100881.94;;;14.79;49.82
63946;BME280;50122;56.330;43.838;2022-09-13T14:30:31;100885.03;;;14.70;49.97
63946;BME280;50122;56.330;43.838;2022-09-13T14:33:00;100884.63;;;14.60;50.37
63946;BME280;50122;56.330;43.838;2022-09-13T14:38:18;100881.88;;;14.44;51.23
63946;BME280;50122;56.330;43.838;2022-09-13T14:40:50;100872.72;;;14.32;51.22
63946;BME280;50122;56.330;43.838;2022-09-13T14:43:21;100868.72;;;14.23;51.63
63946;BME280;50122;56.330;43.838;2022-09-13T14:45:51;100856.91;;;14.12;51.68
63946;BME280;50122;56.330;43.838;2022-09-13T14:48:26;100875.53;;;14.12;52.12
63946;BME280;50122;56.330;43.838;2022-09-13T14:51:07;100869.19;;;13.97;52.14
63946;BME280;50122;56.330;43.838;2022-09-13T14:53:35;100853.75;;;13.86;52.64
63946;BME280;50122;56.330;43.838;2022-09-13T14:56:05;100870.59;;;13.85;52.91
63946;BME280;50122;56.330;43.838;2022-09-13T15:01:20;100873.88;;;13.72;53.52
63946;BME280;50122;56.330;43.838;2022-09-13T15:03:55;100852.50;;;13.57;53.54
63946;BME280;50122;56.330;43.838;2022-09-13T15:06:28;100859.72;;;13.53;53.74
63946;BME280;50122;56.330;43.838;2022-09-13T15:09:13;100860.09;;;13.45;53.82
63946;BME280;50122;56.330;43.838;2022-09-13T15:14:33;100866.06;;;13.30;54.28
63946;BME280;50122;56.330;43.838;2022-09-13T15:17:07;100879.41;;;13.28;54.99
63946;BME280;50122;56.330;43.838;2022-09-13T15:22:17;100889.94;;;13.11;55.46
63946;BME280;50122;56.330;43.838;2022-09-13T15:24:48;100890.22;;;13.05;55.64
63946;BME280;50122;56.330;43.838;2022-09-13T15:27:30;100888.03;;;12.94;56.22
63946;BME280;50122;56.330;43.838;2022-09-13T15:29:59;100895.53;;;12.84;56.89
63946;BME280;50122;56.330;43.838;2022-09-13T15:34:58;100885.31;;;12.75;57.17
63946;BME280;50122;56.330;43.838;2022-09-13T15:37:32;100896.34;;;12.65;57.22
63946;BME280;50122;56.330;43.838;2022-09-13T15:42:40;100901.09;;;12.57;57.59
63946;BME280;50122;56.330;43.838;2022-09-13T15:45:10;100903.75;;;12.57;57.32
63946;BME280;50122;56.330;43.838;2022-09-13T15:47:36;100899.69;;;12.48;58.04
63946;BME280;50122;56.330;43.838;2022-09-13T15:50:03;100898.88;;;12.46;58.25
63946;BME280;50122;56.330;43.838;2022-09-13T15:52:31;100902.69;;;12.41;58.31
63946;BME280;50122;56.330;43.838;2022-09-13T15:54:58;100912.59;;;12.36;58.58
63946;BME280;50122;56.330;43.838;2022-09-13T15:57:27;100909.19;;;12.32;58.91
63946;BME280;50122;56.330;43.838;2022-09-13T15:59:54;100901.56;;;12.24;59.56
63946;BME280;50122;56.330;43.838;2022-09-13T16:02:24;100902.31;;;12.28;59.01
63946;BME280;50122;56.330;43.838;2022-09-13T16:04:52;100900.72;;;12.24;59.21
63946;BME280;50122;56.330;43.838;2022-09-13T16:07:19;100907.91;;;12.20;59.77
63946;BME280;50122;56.330;43.838;2022-09-13T16:09:46;100909.78;;;12.18;59.77
63946;BME280;50122;56.330;43.838;2022-09-13T16:12:13;100886.28;;;12.09;59.73
63946;BME280;50122;56.330;43.838;2022-09-13T16:14:40;100891.94;;;12.22;59.66
63946;BME280;50122;56.330;43.838;2022-09-13T16:17:13;100893.75;;;12.21;59.78
63946;BME280;50122;56.330;43.838;2022-09-13T16:19:42;100893.69;;;12.23;59.65
63946;BME280;50122;56.330;43.838;2022-09-13T16:22:09;100895.56;;;12.21;59.80
63946;BME280;50122;56.330;43.838;2022-09-13T16:24:38;100886.84;;;12.17;60.22
63946;BME280;50122;56.330;43.838;2022-09-13T16:27:04;100883.28;;;12.18;59.86
63946;BME280;50122;56.330;43.838;2022-09-13T16:29:31;100885.06;;;12.18;59.79
63946;BME280;50122;56.330;43.838;2022-09-13T16:31:58;100873.84;;;12.11;60.07
63946;BME280;50122;56.330;43.838;2022-09-13T16:34:27;100877.28;;;12.13;60.11
63946;BME280;50122;56.330;43.838;2022-09-13T16:36:53;100868.06;;;12.01;60.24
63946;BME280;50122;56.330;43.838;2022-09-13T16:39:20;100896.09;;;12.07;60.31
63946;BME280;50122;56.330;43.838;2022-09-13T16:41:48;100890.09;;;12.02;60.93
63946;BME280;50122;56.330;43.838;2022-09-13T16:44:15;100877.13;;;11.95;60.51
63946;BME280;50122;56.330;43.838;2022-09-13T16:46:42;100885.81;;;11.99;60.76
63946;BME280;50122;56.330;43.838;2022-09-13T16:49:09;100855.72;;;11.78;60.67